sensor_id;sensor_type;location;lat;lon;timestamp;P1;durP1;ratioP1;P2;durP2;ratioP2
23670;SDS011;12012;51.998;7.614;2023-07-13T00:02:06;5.43;;;2.38;;
23670;SDS011;12012;51.998;7.614;2023-07-13T00:04:32;7.40;;;2.97;;
23670;SDS011;12012;51.998;7.614;2023-07-13T00:06:57;5.63;;;2.78;;
23670;SDS011;12012;51.998;7.614;2023-07-13T00:09:23;7.25;;;2.55;;
23670;SDS011;12012;51.998;7.614;2023-07-13T00:11:53;4.03;;;2.17;;
23670;SDS011;12012;51.998;7.614;2023-07-13T00:14:20;3.33;;;1.60;;
23670;SDS011;12012;51.998;7.614;2023-07-13T00:16:46;6.10;;;2.60;;
23670;SDS011;12012;51.998;7.614;2023-07-13T00:19:12;5.00;;;2.50;;
23670;SDS011;12012;51.998;7.614;2023-07-13T00:21:39;4.35;;;2.42;;
23670;SDS011;12012;51.998;7.614;2023-07-13T00:24:06;4.88;;;2.53;;
23670;SDS011;12012;51.998;7.614;2023-07-13T00:26:32;4.40;;;2.17;;
23670;SDS011;12012;51.998;7.614;2023-07-13T00:28:58;5.32;;;2.20;;
23670;SDS011;12012;51.998;7.614;2023-07-13T00:31:24;4.30;;;2.22;;
23670;SDS011;12012;51.998;7.614;2023-07-13T00:33:49;3.38;;;2.30;;
23670;SDS011;12012;51.998;7.614;2023-07-13T00:36:15;4.25;;;2.10;;
23670;SDS011;12012;51.998;7.614;2023-07-13T00:38:41;4.55;;;2.58;;
23670;SDS011;12012;51.998;7.614;2023-07-13T00:41:07;4.70;;;2.40;;
23670;SDS011;12012;51.998;7.614;2023-07-13T00:43:32;5.28;;;2.20;;
23670;SDS011;12012;51.998;7.614;2023-07-13T00:48:25;10.82;;;2.80;;
23670;SDS011;12012;51.998;7.614;2023-07-13T00:50:56;4.45;;;2.30;;
23670;SDS011;12012;51.998;7.614;2023-07-13T00:53:25;3.30;;;2.25;;
23670;SDS011;12012;51.998;7.614;2023-07-13T00:55:52;6.63;;;2.45;;
23670;SDS011;12012;51.998;7.614;2023-07-13T00:58:20;9.02;;;2.90;;
23670;SDS011;12012;51.998;7.614;2023-07-13T01:00:45;6.97;;;2.78;;
23670;SDS011;12012;51.998;7.614;2023-07-13T01:03:13;7.60;;;3.03;;
23670;SDS011;12012;51.998;7.614;2023-07-13T01:05:39;7.72;;;2.70;;
23670;SDS011;12012;51.998;7.614;2023-07-13T01:08:05;10.30;;;3.60;;
23670;SDS011;12012;51.998;7.614;2023-07-13T01:10:30;6.10;;;2.90;;
23670;SDS011;12012;51.998;7.614;2023-07-13T01:13:03;10.65;;;3.00;;
23670;SDS011;12012;51.998;7.614;2023-07-13T01:18:01;5.95;;;3.13;;
23670;SDS011;12012;51.998;7.614;2023-07-13T01:20:27;6.07;;;2.95;;
23670;SDS011;12012;51.998;7.614;2023-07-13T01:22:53;8.80;;;3.67;;
23670;SDS011;12012;51.998;7.614;2023-07-13T01:25:18;5.35;;;2.97;;
23670;SDS011;12012;51.998;7.614;2023-07-13T01:27:45;6.50;;;3.13;;
23670;SDS011;12012;51.998;7.614;2023-07-13T01:30:11;6.65;;;3.25;;
23670;SDS011;12012;51.998;7.614;2023-07-13T01:32:36;10.05;;;3.85;;
23670;SDS011;12012;51.998;7.614;2023-07-13T01:35:02;4.80;;;3.13;;
23670;SDS011;12012;51.998;7.614;2023-07-13T01:37:28;7.25;;;2.78;;
23670;SDS011;12012;51.998;7.614;2023-07-13T01:39:58;8.32;;;4.10;;
23670;SDS011;12012;51.998;7.614;2023-07-13T01:42:24;6.88;;;3.38;;
23670;SDS011;12012;51.998;7.614;2023-07-13T01:44:50;5.78;;;3.10;;
23670;SDS011;12012;51.998;7.614;2023-07-13T01:47:15;6.50;;;3.25;;
23670;SDS011;12012;51.998;7.614;2023-07-13T01:49:41;9.18;;;4.15;;
23670;SDS011;12012;51.998;7.614;2023-07-13T01:52:06;9.73;;;3.70;;
23670;SDS011;12012;51.998;7.614;2023-07-13T01:54:32;7.25;;;3.28;;
23670;SDS011;12012;51.998;7.614;2023-07-13T01:56:59;11.60;;;3.75;;
23670;SDS011;12012;51.998;7.614;2023-07-13T01:59:24;8.38;;;3.72;;
23670;SDS011;12012;51.998;7.614;2023-07-13T02:01:50;9.00;;;3.78;;
23670;SDS011;12012;51.998;7.614;2023-07-13T02:04:16;9.55;;;3.40;;
23670;SDS011;12012;51.998;7.614;2023-07-13T02:06:41;5.35;;;3.03;;
23670;SDS011;12012;51.998;7.614;2023-07-13T02:09:07;7.35;;;4.65;;
23670;SDS011;12012;51.998;7.614;2023-07-13T02:11:33;7.65;;;3.28;;
23670;SDS011;12012;51.998;7.614;2023-07-13T02:13:59;8.25;;;4.07;;
23670;SDS011;12012;51.998;7.614;2023-07-13T02:16:26;8.82;;;3.30;;
23670;SDS011;12012;51.998;7.614;2023-07-13T02:18:52;7.50;;;3.45;;
23670;SDS011;12012;51.998;7.614;2023-07-13T02:21:18;8.40;;;3.65;;
23670;SDS011;12012;51.998;7.614;2023-07-13T02:23:44;10.80;;;3.30;;
23670;SDS011;12012;51.998;7.614;2023-07-13T02:26:09;8.57;;;3.38;;
23670;SDS011;12012;51.998;7.614;2023-07-13T02:28:35;7.57;;;3.90;;
23670;SDS011;12012;51.998;7.614;2023-07-13T02:31:04;11.00;;;4.15;;
23670;SDS011;12012;51.998;7.614;2023-07-13T02:33:34;6.43;;;3.88;;
23670;SDS011;12012;51.998;7.614;2023-07-13T02:36:00;5.57;;;3.22;;
23670;SDS011;12012;51.998;7.614;2023-07-13T02:38:25;8.57;;;3.50;;
23670;SDS011;12012;51.998;7.614;2023-07-13T02:40:51;10.57;;;4.25;;
23670;SDS011;12012;51.998;7.614;2023-07-13T02:43:16;10.00;;;3.85;;
23670;SDS011;12012;51.998;7.614;2023-07-13T02:45:45;7.00;;;3.60;;
23670;SDS011;12012;51.998;7.614;2023-07-13T02:48:13;8.07;;;3.63;;
23670;SDS011;12012;51.998;7.614;2023-07-13T02:50:39;8.73;;;3.58;;
23670;SDS011;12012;51.998;7.614;2023-07-13T02:53:05;8.77;;;3.78;;
23670;SDS011;12012;51.998;7.614;2023-07-13T02:55:30;9.18;;;3.95;;
23670;SDS011;12012;51.998;7.614;2023-07-13T02:57:56;6.22;;;3.75;;
23670;SDS011;12012;51.998;7.614;2023-07-13T03:00:22;7.60;;;3.75;;
23670;SDS011;12012;51.998;7.614;2023-07-13T03:02:48;8.02;;;4.25;;
23670;SDS011;12012;51.998;7.614;2023-07-13T03:08:35;14.63;;;3.90;;
23670;SDS011;12012;51.998;7.614;2023-07-13T03:11:02;7.97;;;3.80;;
23670;SDS011;12012;51.998;7.614;2023-07-13T03:13:31;8.68;;;3.70;;
23670;SDS011;12012;51.998;7.614;2023-07-13T03:15:57;11.10;;;3.60;;
23670;SDS011;12012;51.998;7.614;2023-07-13T03:18:23;6.72;;;3.85;;
23670;SDS011;12012;51.998;7.614;2023-07-13T03:20:51;11.30;;;4.85;;
23670;SDS011;12012;51.998;7.614;2023-07-13T03:23:17;11.48;;;4.22;;
23670;SDS011;12012;51.998;7.614;2023-07-13T03:25:43;10.50;;;3.95;;
23670;SDS011;12012;51.998;7.614;2023-07-13T03:28:10;10.63;;;3.67;;
23670;SDS011;12012;51.998;7.614;2023-07-13T03:30:36;12.68;;;4.22;;
23670;SDS011;12012;51.998;7.614;2023-07-13T03:33:02;10.23;;;3.83;;
23670;SDS011;12012;51.998;7.614;2023-07-13T03:35:28;10.75;;;3.53;;
23670;SDS011;12012;51.998;7.614;2023-07-13T03:37:53;9.98;;;3.30;;
23670;SDS011;12012;51.998;7.614;2023-07-13T03:40:19;9.13;;;3.45;;
23670;SDS011;12012;51.998;7.614;2023-07-13T03:42:44;8.82;;;3.47;;
23670;SDS011;12012;51.998;7.614;2023-07-13T03:45:10;8.40;;;3.67;;
23670;SDS011;12012;51.998;7.614;2023-07-13T03:47:36;14.13;;;3.90;;
23670;SDS011;12012;51.998;7.614;2023-07-13T03:50:01;4.95;;;2.85;;
23670;SDS011;12012;51.998;7.614;2023-07-13T03:52:28;6.47;;;3.28;;
23670;SDS011;12012;51.998;7.614;2023-07-13T03:54:54;8.73;;;3.40;;
23670;SDS011;12012;51.998;7.614;2023-07-13T03:57:19;9.05;;;3.33;;
23670;SDS011;12012;51.998;7.614;2023-07-13T03:59:45;10.13;;;3.22;;
23670;SDS011;12012;51.998;7.614;2023-07-13T04:02:10;6.35;;;3.00;;
23670;SDS011;12012;51.998;7.614;2023-07-13T04:04:36;7.90;;;3.42;;
23670;SDS011;12012;51.998;7.614;2023-07-13T04:07:05;11.85;;;3.35;;
23670;SDS011;12012;51.998;7.614;2023-07-13T04:09:30;6.18;;;2.80;;
23670;SDS011;12012;51.998;7.614;2023-07-13T04:11:56;7.20;;;3.47;;
23670;SDS011;12012;51.998;7.614;2023-07-13T04:14:21;6.75;;;3.53;;
23670;SDS011;12012;51.998;7.614;2023-07-13T04:16:47;7.93;;;3.08;;
23670;SDS011;12012;51.998;7.614;2023-07-13T04:19:13;9.52;;;3.15;;
23670;SDS011;12012;51.998;7.614;2023-07-13T04:21:38;7.50;;;3.22;;
23670;SDS011;12012;51.998;7.614;2023-07-13T04:24:04;6.35;;;2.72;;
23670;SDS011;12012;51.998;7.614;2023-07-13T04:26:30;11.25;;;3.25;;
23670;SDS011;12012;51.998;7.614;2023-07-13T04:28:55;9.98;;;3.30;;
23670;SDS011;12012;51.998;7.614;2023-07-13T04:31:21;8.30;;;2.92;;
23670;SDS011;12012;51.998;7.614;2023-07-13T04:33:47;8.27;;;2.95;;
23670;SDS011;12012;51.998;7.614;2023-07-13T04:36:14;8.50;;;2.83;;
23670;SDS011;12012;51.998;7.614;2023-07-13T04:38:40;10.50;;;2.90;;
23670;SDS011;12012;51.998;7.614;2023-07-13T04:41:07;7.25;;;2.60;;
23670;SDS011;12012;51.998;7.614;2023-07-13T04:43:34;6.43;;;2.70;;
23670;SDS011;12012;51.998;7.614;2023-07-13T04:46:07;7.07;;;2.63;;
23670;SDS011;12012;51.998;7.614;2023-07-13T04:48:34;7.43;;;2.38;;
23670;SDS011;12012;51.998;7.614;2023-07-13T04:51:00;8.43;;;2.20;;
23670;SDS011;12012;51.998;7.614;2023-07-13T04:53:27;8.38;;;2.65;;
23670;SDS011;12012;51.998;7.614;2023-07-13T04:55:53;4.85;;;2.10;;
23670;SDS011;12012;51.998;7.614;2023-07-13T04:58:19;6.00;;;2.60;;
23670;SDS011;12012;51.998;7.614;2023-07-13T05:00:44;8.50;;;2.90;;
23670;SDS011;12012;51.998;7.614;2023-07-13T05:03:10;7.32;;;2.55;;
23670;SDS011;12012;51.998;7.614;2023-07-13T05:05:36;11.70;;;3.30;;
23670;SDS011;12012;51.998;7.614;2023-07-13T05:08:01;8.55;;;2.53;;
23670;SDS011;12012;51.998;7.614;2023-07-13T05:10:27;12.07;;;2.83;;
23670;SDS011;12012;51.998;7.614;2023-07-13T05:12:53;13.52;;;2.60;;
23670;SDS011;12012;51.998;7.614;2023-07-13T05:15:20;8.32;;;2.97;;
23670;SDS011;12012;51.998;7.614;2023-07-13T05:17:47;10.07;;;2.78;;
23670;SDS011;12012;51.998;7.614;2023-07-13T05:20:13;6.93;;;2.70;;
23670;SDS011;12012;51.998;7.614;2023-07-13T05:22:38;9.30;;;2.78;;
23670;SDS011;12012;51.998;7.614;2023-07-13T05:25:04;8.07;;;2.63;;
23670;SDS011;12012;51.998;7.614;2023-07-13T05:27:31;8.43;;;2.85;;
23670;SDS011;12012;51.998;7.614;2023-07-13T05:29:57;10.15;;;2.80;;
23670;SDS011;12012;51.998;7.614;2023-07-13T05:32:22;11.70;;;3.03;;
23670;SDS011;12012;51.998;7.614;2023-07-13T05:34:48;9.80;;;2.75;;
23670;SDS011;12012;51.998;7.614;2023-07-13T05:37:13;5.15;;;2.88;;
23670;SDS011;12012;51.998;7.614;2023-07-13T05:39:39;8.73;;;2.78;;
23670;SDS011;12012;51.998;7.614;2023-07-13T05:42:05;10.20;;;3.38;;
23670;SDS011;12012;51.998;7.614;2023-07-13T05:44:31;10.35;;;3.05;;
23670;SDS011;12012;51.998;7.614;2023-07-13T05:46:56;9.77;;;2.55;;
23670;SDS011;12012;51.998;7.614;2023-07-13T05:49:22;11.25;;;3.08;;
23670;SDS011;12012;51.998;7.614;2023-07-13T05:51:48;9.55;;;3.20;;
23670;SDS011;12012;51.998;7.614;2023-07-13T05:54:14;11.40;;;3.03;;
23670;SDS011;12012;51.998;7.614;2023-07-13T05:56:39;13.35;;;3.30;;
23670;SDS011;12012;51.998;7.614;2023-07-13T05:59:05;12.93;;;3.50;;
23670;SDS011;12012;51.998;7.614;2023-07-13T06:01:31;9.93;;;3.08;;
23670;SDS011;12012;51.998;7.614;2023-07-13T06:03:56;14.60;;;3.47;;
23670;SDS011;12012;51.998;7.614;2023-07-13T06:06:22;16.08;;;3.70;;
23670;SDS011;12012;51.998;7.614;2023-07-13T06:08:48;13.02;;;3.47;;
23670;SDS011;12012;51.998;7.614;2023-07-13T06:11:20;13.20;;;3.25;;
23670;SDS011;12012;51.998;7.614;2023-07-13T06:13:48;15.00;;;3.70;;
23670;SDS011;12012;51.998;7.614;2023-07-13T06:16:14;12.13;;;3.50;;
23670;SDS011;12012;51.998;7.614;2023-07-13T06:18:40;10.23;;;4.00;;
23670;SDS011;12012;51.998;7.614;2023-07-13T06:21:11;9.40;;;3.17;;
23670;SDS011;12012;51.998;7.614;2023-07-13T06:23:41;10.88;;;3.05;;
23670;SDS011;12012;51.998;7.614;2023-07-13T06:26:08;9.32;;;3.35;;
23670;SDS011;12012;51.998;7.614;2023-07-13T06:28:34;15.38;;;3.70;;
23670;SDS011;12012;51.998;7.614;2023-07-13T06:31:01;11.48;;;3.50;;
23670;SDS011;12012;51.998;7.614;2023-07-13T06:33:27;13.80;;;3.45;;
23670;SDS011;12012;51.998;7.614;2023-07-13T06:35:53;14.27;;;3.67;;
23670;SDS011;12012;51.998;7.614;2023-07-13T06:38:20;12.75;;;3.63;;
23670;SDS011;12012;51.998;7.614;2023-07-13T06:40:45;11.82;;;3.75;;
23670;SDS011;12012;51.998;7.614;2023-07-13T06:43:11;12.23;;;3.40;;
23670;SDS011;12012;51.998;7.614;2023-07-13T06:45:40;9.75;;;2.95;;
23670;SDS011;12012;51.998;7.614;2023-07-13T06:48:10;12.38;;;3.55;;
23670;SDS011;12012;51.998;7.614;2023-07-13T06:50:36;6.88;;;3.25;;
23670;SDS011;12012;51.998;7.614;2023-07-13T06:53:02;9.43;;;3.20;;
23670;SDS011;12012;51.998;7.614;2023-07-13T06:55:27;12.98;;;3.47;;
23670;SDS011;12012;51.998;7.614;2023-07-13T06:57:53;12.27;;;3.80;;
23670;SDS011;12012;51.998;7.614;2023-07-13T07:00:19;15.85;;;3.60;;
23670;SDS011;12012;51.998;7.614;2023-07-13T07:02:44;8.80;;;3.30;;
23670;SDS011;12012;51.998;7.614;2023-07-13T07:05:10;10.60;;;3.20;;
23670;SDS011;12012;51.998;7.614;2023-07-13T07:07:35;10.48;;;3.13;;
23670;SDS011;12012;51.998;7.614;2023-07-13T07:10:01;10.07;;;2.90;;
23670;SDS011;12012;51.998;7.614;2023-07-13T07:12:28;13.63;;;3.20;;
23670;SDS011;12012;51.998;7.614;2023-07-13T07:14:53;12.40;;;3.17;;
23670;SDS011;12012;51.998;7.614;2023-07-13T07:17:19;9.93;;;3.15;;
23670;SDS011;12012;51.998;7.614;2023-07-13T07:19:45;10.07;;;3.25;;
23670;SDS011;12012;51.998;7.614;2023-07-13T07:22:10;10.43;;;3.80;;
23670;SDS011;12012;51.998;7.614;2023-07-13T07:24:36;12.60;;;3.35;;
23670;SDS011;12012;51.998;7.614;2023-07-13T07:27:01;9.38;;;3.33;;
23670;SDS011;12012;51.998;7.614;2023-07-13T07:29:27;11.20;;;3.65;;
23670;SDS011;12012;51.998;7.614;2023-07-13T07:31:53;9.57;;;3.35;;
23670;SDS011;12012;51.998;7.614;2023-07-13T07:34:19;8.65;;;3.13;;
23670;SDS011;12012;51.998;7.614;2023-07-13T07:36:44;11.55;;;4.07;;
23670;SDS011;12012;51.998;7.614;2023-07-13T07:39:10;13.18;;;3.25;;
23670;SDS011;12012;51.998;7.614;2023-07-13T07:41:36;12.13;;;4.25;;
23670;SDS011;12012;51.998;7.614;2023-07-13T07:44:02;11.85;;;3.45;;
23670;SDS011;12012;51.998;7.614;2023-07-13T07:46:28;11.25;;;4.15;;
23670;SDS011;12012;51.998;7.614;2023-07-13T07:48:55;12.25;;;3.72;;
23670;SDS011;12012;51.998;7.614;2023-07-13T07:51:20;12.63;;;3.50;;
23670;SDS011;12012;51.998;7.614;2023-07-13T07:53:46;9.48;;;3.22;;
23670;SDS011;12012;51.998;7.614;2023-07-13T07:56:12;13.85;;;3.95;;
23670;SDS011;12012;51.998;7.614;2023-07-13T07:58:38;11.80;;;3.80;;
23670;SDS011;12012;51.998;7.614;2023-07-13T08:01:04;9.88;;;3.45;;
23670;SDS011;12012;51.998;7.614;2023-07-13T08:03:31;12.30;;;3.92;;
23670;SDS011;12012;51.998;7.614;2023-07-13T08:05:57;10.75;;;3.70;;
23670;SDS011;12012;51.998;7.614;2023-07-13T08:08:22;12.27;;;4.32;;
23670;SDS011;12012;51.998;7.614;2023-07-13T08:10:48;10.75;;;4.30;;
23670;SDS011;12012;51.998;7.614;2023-07-13T08:13:13;11.15;;;4.00;;
23670;SDS011;12012;51.998;7.614;2023-07-13T08:15:39;7.72;;;3.55;;
23670;SDS011;12012;51.998;7.614;2023-07-13T08:18:05;9.07;;;3.83;;
23670;SDS011;12012;51.998;7.614;2023-07-13T08:20:32;12.32;;;4.07;;
23670;SDS011;12012;51.998;7.614;2023-07-13T08:22:58;13.13;;;4.13;;
23670;SDS011;12012;51.998;7.614;2023-07-13T08:25:24;13.70;;;4.13;;
23670;SDS011;12012;51.998;7.614;2023-07-13T08:27:49;8.55;;;4.35;;
23670;SDS011;12012;51.998;7.614;2023-07-13T08:30:15;9.95;;;4.32;;
23670;SDS011;12012;51.998;7.614;2023-07-13T08:32:40;10.57;;;3.90;;
23670;SDS011;12012;51.998;7.614;2023-07-13T08:35:06;10.07;;;4.18;;
23670;SDS011;12012;51.998;7.614;2023-07-13T08:37:32;10.70;;;3.78;;
23670;SDS011;12012;51.998;7.614;2023-07-13T08:39:57;7.93;;;3.70;;
23670;SDS011;12012;51.998;7.614;2023-07-13T08:45:25;9.30;;;3.65;;
23670;SDS011;12012;51.998;7.614;2023-07-13T08:48:01;11.82;;;4.28;;
23670;SDS011;12012;51.998;7.614;2023-07-13T08:50:35;10.05;;;3.80;;
23670;SDS011;12012;51.998;7.614;2023-07-13T08:53:22;8.63;;;3.90;;
23670;SDS011;12012;51.998;7.614;2023-07-13T08:55:51;8.98;;;3.80;;
23670;SDS011;12012;51.998;7.614;2023-07-13T08:58:23;8.82;;;3.47;;
23670;SDS011;12012;51.998;7.614;2023-07-13T09:03:41;9.25;;;3.33;;
23670;SDS011;12012;51.998;7.614;2023-07-13T09:06:31;9.70;;;3.60;;
23670;SDS011;12012;51.998;7.614;2023-07-13T09:09:22;8.65;;;3.55;;
23670;SDS011;12012;51.998;7.614;2023-07-13T09:15:17;7.85;;;3.72;;
23670;SDS011;12012;51.998;7.614;2023-07-13T09:17:57;8.93;;;3.13;;
23670;SDS011;12012;51.998;7.614;2023-07-13T09:20:42;7.57;;;3.08;;
23670;SDS011;12012;51.998;7.614;2023-07-13T09:23:14;7.28;;;3.25;;
23670;SDS011;12012;51.998;7.614;2023-07-13T09:25:43;9.85;;;2.97;;
23670;SDS011;12012;51.998;7.614;2023-07-13T09:28:17;7.38;;;3.25;;
23670;SDS011;12012;51.998;7.614;2023-07-13T09:33:28;8.13;;;3.10;;
23670;SDS011;12012;51.998;7.614;2023-07-13T09:35:56;6.35;;;2.92;;
23670;SDS011;12012;51.998;7.614;2023-07-13T09:38:26;8.02;;;3.20;;
23670;SDS011;12012;51.998;7.614;2023-07-13T09:41:13;6.80;;;3.50;;
23670;SDS011;12012;51.998;7.614;2023-07-13T09:44:07;7.22;;;3.22;;
23670;SDS011;12012;51.998;7.614;2023-07-13T09:46:38;7.63;;;3.25;;
23670;SDS011;12012;51.998;7.614;2023-07-13T09:49:09;7.82;;;3.45;;
23670;SDS011;12012;51.998;7.614;2023-07-13T09:51:36;8.02;;;3.97;;
23670;SDS011;12012;51.998;7.614;2023-07-13T09:54:19;10.90;;;3.85;;
23670;SDS011;12012;51.998;7.614;2023-07-13T09:56:45;8.55;;;3.47;;
23670;SDS011;12012;51.998;7.614;2023-07-13T09:59:21;10.82;;;3.33;;
23670;SDS011;12012;51.998;7.614;2023-07-13T10:01:49;8.32;;;3.13;;
23670;SDS011;12012;51.998;7.614;2023-07-13T10:04:16;6.65;;;3.15;;
23670;SDS011;12012;51.998;7.614;2023-07-13T10:06:43;8.65;;;3.30;;
23670;SDS011;12012;51.998;7.614;2023-07-13T10:09:10;7.22;;;3.20;;
23670;SDS011;12012;51.998;7.614;2023-07-13T10:11:40;8.68;;;2.83;;
23670;SDS011;12012;51.998;7.614;2023-07-13T10:19:09;8.23;;;3.13;;
23670;SDS011;12012;51.998;7.614;2023-07-13T10:21:43;10.25;;;3.00;;
23670;SDS011;12012;51.998;7.614;2023-07-13T10:24:27;6.72;;;2.65;;
23670;SDS011;12012;51.998;7.614;2023-07-13T10:27:15;6.70;;;2.65;;
23670;SDS011;12012;51.998;7.614;2023-07-13T10:29:46;6.93;;;2.63;;
23670;SDS011;12012;51.998;7.614;2023-07-13T10:32:26;6.93;;;2.60;;
23670;SDS011;12012;51.998;7.614;2023-07-13T10:34:51;8.75;;;2.60;;
23670;SDS011;12012;51.998;7.614;2023-07-13T10:37:21;9.63;;;2.80;;
23670;SDS011;12012;51.998;7.614;2023-07-13T10:39:52;6.75;;;2.95;;
23670;SDS011;12012;51.998;7.614;2023-07-13T10:42:25;8.63;;;2.60;;
23670;SDS011;12012;51.998;7.614;2023-07-13T10:44:55;6.80;;;2.35;;
23670;SDS011;12012;51.998;7.614;2023-07-13T10:47:20;7.20;;;2.60;;
23670;SDS011;12012;51.998;7.614;2023-07-13T10:49:47;8.43;;;2.80;;
23670;SDS011;12012;51.998;7.614;2023-07-13T10:55:37;5.82;;;2.13;;
23670;SDS011;12012;51.998;7.614;2023-07-13T10:58:01;6.10;;;2.45;;
23670;SDS011;12012;51.998;7.614;2023-07-13T11:00:43;7.05;;;2.50;;
23670;SDS011;12012;51.998;7.614;2023-07-13T11:03:22;5.72;;;2.40;;
23670;SDS011;12012;51.998;7.614;2023-07-13T11:06:03;6.07;;;2.40;;
23670;SDS011;12012;51.998;7.614;2023-07-13T11:08:34;6.45;;;2.22;;
23670;SDS011;12012;51.998;7.614;2023-07-13T11:11:02;5.53;;;2.15;;
23670;SDS011;12012;51.998;7.614;2023-07-13T11:16:48;5.00;;;2.15;;
23670;SDS011;12012;51.998;7.614;2023-07-13T11:18:52;5.55;;;2.22;;
23670;SDS011;12012;51.998;7.614;2023-07-13T11:21:32;5.80;;;2.17;;
23670;SDS011;12012;51.998;7.614;2023-07-13T11:31:40;5.03;;;2.03;;
23670;SDS011;12012;51.998;7.614;2023-07-13T11:34:13;8.80;;;2.45;;
23670;SDS011;12012;51.998;7.614;2023-07-13T11:36:42;7.40;;;2.80;;
23670;SDS011;12012;51.998;7.614;2023-07-13T11:41:53;4.38;;;2.05;;
23670;SDS011;12012;51.998;7.614;2023-07-13T11:44:22;5.97;;;2.38;;
23670;SDS011;12012;51.998;7.614;2023-07-13T11:46:51;5.75;;;2.17;;
23670;SDS011;12012;51.998;7.614;2023-07-13T11:49:22;4.32;;;1.98;;
23670;SDS011;12012;51.998;7.614;2023-07-13T11:51:49;5.85;;;2.38;;
23670;SDS011;12012;51.998;7.614;2023-07-13T11:54:30;4.03;;;2.10;;
23670;SDS011;12012;51.998;7.614;2023-07-13T11:56:59;9.55;;;2.47;;
23670;SDS011;12012;51.998;7.614;2023-07-13T11:59:31;6.45;;;2.13;;
23670;SDS011;12012;51.998;7.614;2023-07-13T12:01:58;6.78;;;2.45;;
23670;SDS011;12012;51.998;7.614;2023-07-13T12:04:31;7.18;;;2.08;;
23670;SDS011;12012;51.998;7.614;2023-07-13T12:07:14;7.82;;;2.45;;
23670;SDS011;12012;51.998;7.614;2023-07-13T12:09:41;5.28;;;2.30;;
23670;SDS011;12012;51.998;7.614;2023-07-13T12:12:18;7.50;;;2.33;;
23670;SDS011;12012;51.998;7.614;2023-07-13T12:14:44;5.85;;;2.00;;
23670;SDS011;12012;51.998;7.614;2023-07-13T12:19:39;6.35;;;2.60;;
23670;SDS011;12012;51.998;7.614;2023-07-13T12:22:08;5.93;;;2.58;;
23670;SDS011;12012;51.998;7.614;2023-07-13T12:24:38;8.40;;;3.00;;
23670;SDS011;12012;51.998;7.614;2023-07-13T12:29:52;6.93;;;3.15;;
23670;SDS011;12012;51.998;7.614;2023-07-13T12:32:31;7.72;;;3.40;;
23670;SDS011;12012;51.998;7.614;2023-07-13T12:35:04;6.82;;;3.28;;
23670;SDS011;12012;51.998;7.614;2023-07-13T12:37:43;7.68;;;3.17;;
23670;SDS011;12012;51.998;7.614;2023-07-13T12:40:17;5.60;;;2.40;;
23670;SDS011;12012;51.998;7.614;2023-07-13T12:42:45;6.63;;;2.65;;
23670;SDS011;12012;51.998;7.614;2023-07-13T12:47:44;3.78;;;2.67;;
23670;SDS011;12012;51.998;7.614;2023-07-13T12:50:21;4.30;;;2.50;;
23670;SDS011;12012;51.998;7.614;2023-07-13T12:52:54;5.78;;;2.60;;
23670;SDS011;12012;51.998;7.614;2023-07-13T12:55:28;6.88;;;2.95;;
23670;SDS011;12012;51.998;7.614;2023-07-13T12:57:57;5.10;;;2.70;;
23670;SDS011;12012;51.998;7.614;2023-07-13T13:00:30;7.75;;;3.80;;
23670;SDS011;12012;51.998;7.614;2023-07-13T13:03:00;7.05;;;3.20;;
23670;SDS011;12012;51.998;7.614;2023-07-13T13:05:32;5.50;;;3.25;;
23670;SDS011;12012;51.998;7.614;2023-07-13T13:07:59;7.88;;;3.65;;
23670;SDS011;12012;51.998;7.614;2023-07-13T13:10:25;7.65;;;3.72;;
23670;SDS011;12012;51.998;7.614;2023-07-13T13:12:51;6.40;;;3.15;;
23670;SDS011;12012;51.998;7.614;2023-07-13T13:15:17;5.20;;;3.42;;
23670;SDS011;12012;51.998;7.614;2023-07-13T13:17:43;6.22;;;3.28;;
23670;SDS011;12012;51.998;7.614;2023-07-13T13:20:16;9.65;;;3.70;;
23670;SDS011;12012;51.998;7.614;2023-07-13T13:22:43;9.02;;;3.70;;
23670;SDS011;12012;51.998;7.614;2023-07-13T13:25:10;9.25;;;3.92;;
23670;SDS011;12012;51.998;7.614;2023-07-13T13:27:36;7.93;;;3.42;;
23670;SDS011;12012;51.998;7.614;2023-07-13T13:30:02;8.27;;;3.78;;
23670;SDS011;12012;51.998;7.614;2023-07-13T13:32:28;7.93;;;4.15;;
23670;SDS011;12012;51.998;7.614;2023-07-13T13:34:53;9.55;;;4.72;;
23670;SDS011;12012;51.998;7.614;2023-07-13T13:37:22;7.70;;;4.05;;
23670;SDS011;12012;51.998;7.614;2023-07-13T13:39:50;7.40;;;3.97;;
23670;SDS011;12012;51.998;7.614;2023-07-13T13:42:17;7.68;;;3.78;;
23670;SDS011;12012;51.998;7.614;2023-07-13T13:44:42;7.38;;;3.55;;
23670;SDS011;12012;51.998;7.614;2023-07-13T13:47:20;8.57;;;3.83;;
23670;SDS011;12012;51.998;7.614;2023-07-13T13:49:55;8.23;;;3.70;;
23670;SDS011;12012;51.998;7.614;2023-07-13T13:52:21;6.10;;;3.28;;
23670;SDS011;12012;51.998;7.614;2023-07-13T13:54:46;6.70;;;3.30;;
23670;SDS011;12012;51.998;7.614;2023-07-13T13:57:12;6.03;;;3.72;;
23670;SDS011;12012;51.998;7.614;2023-07-13T13:59:39;8.10;;;3.33;;
23670;SDS011;12012;51.998;7.614;2023-07-13T14:02:25;6.10;;;3.00;;
23670;SDS011;12012;51.998;7.614;2023-07-13T14:04:54;5.53;;;3.30;;
23670;SDS011;12012;51.998;7.614;2023-07-13T14:07:24;6.57;;;3.70;;
23670;SDS011;12012;51.998;7.614;2023-07-13T14:09:52;4.65;;;3.00;;
23670;SDS011;12012;51.998;7.614;2023-07-13T14:12:21;5.93;;;3.38;;
23670;SDS011;12012;51.998;7.614;2023-07-13T14:14:46;7.38;;;3.58;;
23670;SDS011;12012;51.998;7.614;2023-07-13T14:17:22;4.80;;;3.30;;
23670;SDS011;12012;51.998;7.614;2023-07-13T14:19:50;5.32;;;3.30;;
23670;SDS011;12012;51.998;7.614;2023-07-13T14:22:17;9.35;;;3.47;;
23670;SDS011;12012;51.998;7.614;2023-07-13T14:24:43;5.75;;;3.83;;
23670;SDS011;12012;51.998;7.614;2023-07-13T14:27:10;5.32;;;3.53;;
23670;SDS011;12012;51.998;7.614;2023-07-13T14:29:36;5.57;;;3.45;;
23670;SDS011;12012;51.998;7.614;2023-07-13T14:32:02;5.38;;;3.47;;
23670;SDS011;12012;51.998;7.614;2023-07-13T14:34:29;5.03;;;3.92;;
23670;SDS011;12012;51.998;7.614;2023-07-13T14:36:55;7.43;;;4.07;;
23670;SDS011;12012;51.998;7.614;2023-07-13T14:39:22;5.88;;;3.80;;
23670;SDS011;12012;51.998;7.614;2023-07-13T14:41:50;5.25;;;3.97;;
23670;SDS011;12012;51.998;7.614;2023-07-13T14:44:17;5.10;;;3.80;;
23670;SDS011;12012;51.998;7.614;2023-07-13T14:46:45;4.00;;;3.45;;
23670;SDS011;12012;51.998;7.614;2023-07-13T14:49:15;7.93;;;4.20;;
23670;SDS011;12012;51.998;7.614;2023-07-13T14:52:00;7.00;;;3.85;;
23670;SDS011;12012;51.998;7.614;2023-07-13T14:54:27;4.75;;;3.00;;
23670;SDS011;12012;51.998;7.614;2023-07-13T14:56:53;4.68;;;3.25;;
23670;SDS011;12012;51.998;7.614;2023-07-13T14:59:19;4.40;;;2.92;;
23670;SDS011;12012;51.998;7.614;2023-07-13T15:01:45;4.50;;;3.00;;
23670;SDS011;12012;51.998;7.614;2023-07-13T15:04:12;3.92;;;2.50;;
23670;SDS011;12012;51.998;7.614;2023-07-13T15:06:54;4.32;;;2.90;;
23670;SDS011;12012;51.998;7.614;2023-07-13T15:09:21;9.27;;;2.90;;
23670;SDS011;12012;51.998;7.614;2023-07-13T15:11:47;6.25;;;3.10;;
23670;SDS011;12012;51.998;7.614;2023-07-13T15:14:12;4.35;;;2.70;;
23670;SDS011;12012;51.998;7.614;2023-07-13T15:16:38;5.55;;;3.13;;
23670;SDS011;12012;51.998;7.614;2023-07-13T15:19:03;4.07;;;2.58;;
23670;SDS011;12012;51.998;7.614;2023-07-13T15:21:29;4.90;;;2.80;;
23670;SDS011;12012;51.998;7.614;2023-07-13T15:23:59;4.38;;;2.67;;
23670;SDS011;12012;51.998;7.614;2023-07-13T15:26:25;5.07;;;2.50;;
23670;SDS011;12012;51.998;7.614;2023-07-13T15:28:51;6.70;;;2.78;;
23670;SDS011;12012;51.998;7.614;2023-07-13T15:31:21;4.65;;;2.40;;
23670;SDS011;12012;51.998;7.614;2023-07-13T15:33:49;4.50;;;2.90;;
23670;SDS011;12012;51.998;7.614;2023-07-13T15:36:17;3.65;;;2.03;;
23670;SDS011;12012;51.998;7.614;2023-07-13T15:38:44;2.90;;;1.90;;
23670;SDS011;12012;51.998;7.614;2023-07-13T15:41:15;4.25;;;2.38;;